sensor_id;sensor_type;location;lat;lon;timestamp;P1;durP1;ratioP1;P2;durP2;ratioP2
479;SDS011;226;48.606;9.096;2022-11-20T00:01:09;3.60;;;3.10;;
479;SDS011;226;48.606;9.096;2022-11-20T00:03:38;3.57;;;3.17;;
479;SDS011;226;48.606;9.096;2022-11-20T00:06:07;4.53;;;3.40;;
479;SDS011;226;48.606;9.096;2022-11-20T00:08:37;2.90;;;2.60;;
479;SDS011;226;48.606;9.096;2022-11-20T00:11:05;3.17;;;2.90;;
479;SDS011;226;48.606;9.096;2022-11-20T00:13:42;5.10;;;3.13;;
479;SDS011;226;48.606;9.096;2022-11-20T00:16:13;20.57;;;4.50;;
479;SDS011;226;48.606;9.096;2022-11-20T00:18:43;3.67;;;3.33;;
479;SDS011;226;48.606;9.096;2022-11-20T00:21:12;2.63;;;2.43;;
479;SDS011;226;48.606;9.096;2022-11-20T00:23:41;7.20;;;3.13;;
479;SDS011;226;48.606;9.096;2022-11-20T00:26:10;1.83;;;1.73;;
479;SDS011;226;48.606;9.096;2022-11-20T00:28:41;2.53;;;2.43;;
479;SDS011;226;48.606;9.096;2022-11-20T00:31:11;3.10;;;2.90;;
479;SDS011;226;48.606;9.096;2022-11-20T00:33:40;2.93;;;2.80;;
479;SDS011;226;48.606;9.096;2022-11-20T00:36:09;2.67;;;2.37;;
479;SDS011;226;48.606;9.096;2022-11-20T00:38:38;2.30;;;2.20;;
479;SDS011;226;48.606;9.096;2022-11-20T00:41:06;5.27;;;2.93;;
479;SDS011;226;48.606;9.096;2022-11-20T00:43:36;4.70;;;3.70;;
479;SDS011;226;48.606;9.096;2022-11-20T00:46:07;4.03;;;3.03;;
479;SDS011;226;48.606;9.096;2022-11-20T00:48:36;4.50;;;2.63;;
479;SDS011;226;48.606;9.096;2022-11-20T00:51:04;2.30;;;2.20;;
479;SDS011;226;48.606;9.096;2022-11-20T00:53:32;3.53;;;2.80;;
479;SDS011;226;48.606;9.096;2022-11-20T00:56:01;2.83;;;2.67;;
479;SDS011;226;48.606;9.096;2022-11-20T00:58:31;6.83;;;4.27;;
479;SDS011;226;48.606;9.096;2022-11-20T01:01:00;3.37;;;3.17;;
479;SDS011;226;48.606;9.096;2022-11-20T01:03:31;5.70;;;3.27;;
479;SDS011;226;48.606;9.096;2022-11-20T01:06:00;6.27;;;2.83;;
479;SDS011;226;48.606;9.096;2022-11-20T01:08:30;2.67;;;2.47;;
479;SDS011;226;48.606;9.096;2022-11-20T01:10:59;2.63;;;2.47;;
479;SDS011;226;48.606;9.096;2022-11-20T01:13:28;4.53;;;2.50;;
479;SDS011;226;48.606;9.096;2022-11-20T01:16:07;2.40;;;2.30;;
479;SDS011;226;48.606;9.096;2022-11-20T01:18:38;2.30;;;2.10;;
479;SDS011;226;48.606;9.096;2022-11-20T01:21:08;3.67;;;2.63;;
479;SDS011;226;48.606;9.096;2022-11-20T01:23:37;2.43;;;2.33;;
479;SDS011;226;48.606;9.096;2022-11-20T01:26:07;5.17;;;3.57;;
479;SDS011;226;48.606;9.096;2022-11-20T01:28:36;3.40;;;3.20;;
479;SDS011;226;48.606;9.096;2022-11-20T01:31:10;2.83;;;2.63;;
479;SDS011;226;48.606;9.096;2022-11-20T01:33:40;2.47;;;2.27;;
479;SDS011;226;48.606;9.096;2022-11-20T01:36:09;4.77;;;2.40;;
479;SDS011;226;48.606;9.096;2022-11-20T01:38:38;4.00;;;2.67;;
479;SDS011;226;48.606;9.096;2022-11-20T01:41:06;2.40;;;2.30;;
479;SDS011;226;48.606;9.096;2022-11-20T01:43:34;3.30;;;3.20;;
479;SDS011;226;48.606;9.096;2022-11-20T01:46:08;2.50;;;2.40;;
479;SDS011;226;48.606;9.096;2022-11-20T01:48:53;2.67;;;2.47;;
479;SDS011;226;48.606;9.096;2022-11-20T01:51:25;3.67;;;3.37;;
479;SDS011;226;48.606;9.096;2022-11-20T01:53:57;3.70;;;3.40;;
479;SDS011;226;48.606;9.096;2022-11-20T01:56:28;4.40;;;2.90;;
479;SDS011;226;48.606;9.096;2022-11-20T01:59:02;3.20;;;3.10;;
479;SDS011;226;48.606;9.096;2022-11-20T02:01:32;2.57;;;2.47;;
479;SDS011;226;48.606;9.096;2022-11-20T02:04:02;4.50;;;4.17;;
479;SDS011;226;48.606;9.096;2022-11-20T02:06:31;2.20;;;2.07;;
479;SDS011;226;48.606;9.096;2022-11-20T02:09:03;3.57;;;3.30;;
479;SDS011;226;48.606;9.096;2022-11-20T02:11:31;2.80;;;1.97;;
479;SDS011;226;48.606;9.096;2022-11-20T02:13:59;5.13;;;4.77;;
479;SDS011;226;48.606;9.096;2022-11-20T02:16:27;4.97;;;3.07;;
479;SDS011;226;48.606;9.096;2022-11-20T02:18:59;3.53;;;2.43;;
479;SDS011;226;48.606;9.096;2022-11-20T02:21:33;3.87;;;3.40;;
479;SDS011;226;48.606;9.096;2022-11-20T02:24:06;2.67;;;2.47;;
479;SDS011;226;48.606;9.096;2022-11-20T02:26:38;4.43;;;2.80;;
479;SDS011;226;48.606;9.096;2022-11-20T02:29:14;3.47;;;3.17;;
479;SDS011;226;48.606;9.096;2022-11-20T02:31:44;3.87;;;2.47;;
479;SDS011;226;48.606;9.096;2022-11-20T02:34:12;5.73;;;3.80;;
479;SDS011;226;48.606;9.096;2022-11-20T02:36:40;2.43;;;2.30;;
479;SDS011;226;48.606;9.096;2022-11-20T02:39:11;3.00;;;2.80;;
479;SDS011;226;48.606;9.096;2022-11-20T02:41:43;3.27;;;3.00;;
479;SDS011;226;48.606;9.096;2022-11-20T02:44:11;4.00;;;3.80;;
479;SDS011;226;48.606;9.096;2022-11-20T02:46:39;5.00;;;3.60;;
479;SDS011;226;48.606;9.096;2022-11-20T02:49:07;3.33;;;3.00;;
479;SDS011;226;48.606;9.096;2022-11-20T02:51:35;4.50;;;3.40;;
479;SDS011;226;48.606;9.096;2022-11-20T02:54:03;4.63;;;3.77;;
479;SDS011;226;48.606;9.096;2022-11-20T02:56:32;4.83;;;2.97;;
479;SDS011;226;48.606;9.096;2022-11-20T02:59:00;3.30;;;3.03;;
479;SDS011;226;48.606;9.096;2022-11-20T03:01:28;3.73;;;3.40;;
479;SDS011;226;48.606;9.096;2022-11-20T03:03:56;3.93;;;3.03;;
479;SDS011;226;48.606;9.096;2022-11-20T03:06:24;4.47;;;4.17;;
479;SDS011;226;48.606;9.096;2022-11-20T03:08:52;9.80;;;5.23;;
479;SDS011;226;48.606;9.096;2022-11-20T03:11:20;4.00;;;3.60;;
479;SDS011;226;48.606;9.096;2022-11-20T03:13:50;6.43;;;4.37;;
479;SDS011;226;48.606;9.096;2022-11-20T03:16:19;6.73;;;3.67;;
479;SDS011;226;48.606;9.096;2022-11-20T03:18:48;5.73;;;3.77;;
479;SDS011;226;48.606;9.096;2022-11-20T03:21:19;3.37;;;3.17;;
479;SDS011;226;48.606;9.096;2022-11-20T03:23:46;5.83;;;3.80;;
479;SDS011;226;48.606;9.096;2022-11-20T03:26:15;2.93;;;2.60;;
479;SDS011;226;48.606;9.096;2022-11-20T03:28:46;2.97;;;2.77;;
479;SDS011;226;48.606;9.096;2022-11-20T03:31:17;3.43;;;2.90;;
479;SDS011;226;48.606;9.096;2022-11-20T03:33:46;4.50;;;4.20;;
479;SDS011;226;48.606;9.096;2022-11-20T03:36:15;4.93;;;3.40;;
479;SDS011;226;48.606;9.096;2022-11-20T03:38:44;4.97;;;3.43;;
479;SDS011;226;48.606;9.096;2022-11-20T03:41:13;3.37;;;3.17;;
479;SDS011;226;48.606;9.096;2022-11-20T03:43:46;3.30;;;3.00;;
479;SDS011;226;48.606;9.096;2022-11-20T03:46:16;3.80;;;3.60;;
479;SDS011;226;48.606;9.096;2022-11-20T03:48:44;4.47;;;4.13;;
479;SDS011;226;48.606;9.096;2022-11-20T03:51:17;3.77;;;3.20;;
479;SDS011;226;48.606;9.096;2022-11-20T03:53:47;5.10;;;3.70;;
479;SDS011;226;48.606;9.096;2022-11-20T03:56:17;6.00;;;2.93;;
479;SDS011;226;48.606;9.096;2022-11-20T03:58:46;6.90;;;3.23;;
479;SDS011;226;48.606;9.096;2022-11-20T04:01:15;4.80;;;3.50;;
479;SDS011;226;48.606;9.096;2022-11-20T04:03:46;3.10;;;2.90;;
479;SDS011;226;48.606;9.096;2022-11-20T04:06:15;2.80;;;2.70;;
479;SDS011;226;48.606;9.096;2022-11-20T04:08:44;3.37;;;3.07;;
479;SDS011;226;48.606;9.096;2022-11-20T04:11:20;3.53;;;2.70;;
479;SDS011;226;48.606;9.096;2022-11-20T04:13:50;4.87;;;4.03;;
479;SDS011;226;48.606;9.096;2022-11-20T04:16:21;3.73;;;3.43;;
479;SDS011;226;48.606;9.096;2022-11-20T04:18:51;3.50;;;3.20;;
479;SDS011;226;48.606;9.096;2022-11-20T04:21:20;2.80;;;2.53;;
479;SDS011;226;48.606;9.096;2022-11-20T04:23:49;3.30;;;3.03;;
479;SDS011;226;48.606;9.096;2022-11-20T04:26:19;3.37;;;3.00;;
479;SDS011;226;48.606;9.096;2022-11-20T04:28:48;3.10;;;2.90;;
479;SDS011;226;48.606;9.096;2022-11-20T04:31:17;8.33;;;3.73;;
479;SDS011;226;48.606;9.096;2022-11-20T04:33:48;5.20;;;3.90;;
479;SDS011;226;48.606;9.096;2022-11-20T04:36:17;2.70;;;2.50;;
479;SDS011;226;48.606;9.096;2022-11-20T04:38:46;4.53;;;3.00;;
479;SDS011;226;48.606;9.096;2022-11-20T04:41:23;9.43;;;3.10;;
479;SDS011;226;48.606;9.096;2022-11-20T04:43:52;4.40;;;2.97;;
479;SDS011;226;48.606;9.096;2022-11-20T04:46:26;2.60;;;2.50;;
479;SDS011;226;48.606;9.096;2022-11-20T04:48:56;2.70;;;2.50;;
479;SDS011;226;48.606;9.096;2022-11-20T04:51:24;3.00;;;2.07;;
479;SDS011;226;48.606;9.096;2022-11-20T04:53:52;3.07;;;2.77;;
479;SDS011;226;48.606;9.096;2022-11-20T04:56:20;2.03;;;1.83;;
479;SDS011;226;48.606;9.096;2022-11-20T04:58:48;3.20;;;2.90;;
479;SDS011;226;48.606;9.096;2022-11-20T05:01:17;3.60;;;2.67;;
479;SDS011;226;48.606;9.096;2022-11-20T05:03:46;2.00;;;1.90;;
479;SDS011;226;48.606;9.096;2022-11-20T05:06:17;3.23;;;3.03;;
479;SDS011;226;48.606;9.096;2022-11-20T05:08:46;4.30;;;2.73;;
479;SDS011;226;48.606;9.096;2022-11-20T05:11:15;4.03;;;2.73;;
479;SDS011;226;48.606;9.096;2022-11-20T05:13:46;2.10;;;2.00;;
479;SDS011;226;48.606;9.096;2022-11-20T05:16:15;6.47;;;3.40;;
479;SDS011;226;48.606;9.096;2022-11-20T05:18:44;3.03;;;2.50;;
479;SDS011;226;48.606;9.096;2022-11-20T05:21:13;3.77;;;3.37;;
479;SDS011;226;48.606;9.096;2022-11-20T05:23:43;3.80;;;3.47;;
479;SDS011;226;48.606;9.096;2022-11-20T05:26:12;5.03;;;3.53;;
479;SDS011;226;48.606;9.096;2022-11-20T05:28:42;2.90;;;2.80;;
479;SDS011;226;48.606;9.096;2022-11-20T05:31:11;20.03;;;3.03;;
479;SDS011;226;48.606;9.096;2022-11-20T05:33:40;10.53;;;2.40;;
479;SDS011;226;48.606;9.096;2022-11-20T05:36:09;2.30;;;2.20;;
479;SDS011;226;48.606;9.096;2022-11-20T05:38:37;3.87;;;2.70;;
479;SDS011;226;48.606;9.096;2022-11-20T05:41:08;2.87;;;2.67;;
479;SDS011;226;48.606;9.096;2022-11-20T05:43:38;3.23;;;2.40;;
479;SDS011;226;48.606;9.096;2022-11-20T05:46:07;2.47;;;2.27;;
479;SDS011;226;48.606;9.096;2022-11-20T05:48:37;2.10;;;2.00;;
479;SDS011;226;48.606;9.096;2022-11-20T05:51:06;4.87;;;2.37;;
479;SDS011;226;48.606;9.096;2022-11-20T05:53:35;2.63;;;2.53;;
479;SDS011;226;48.606;9.096;2022-11-20T05:56:12;3.60;;;2.23;;
479;SDS011;226;48.606;9.096;2022-11-20T05:58:41;10.13;;;3.50;;
479;SDS011;226;48.606;9.096;2022-11-20T06:01:10;4.77;;;2.60;;
479;SDS011;226;48.606;9.096;2022-11-20T06:03:40;2.30;;;2.20;;
479;SDS011;226;48.606;9.096;2022-11-20T06:06:12;2.43;;;2.33;;
479;SDS011;226;48.606;9.096;2022-11-20T06:08:40;3.37;;;2.67;;
479;SDS011;226;48.606;9.096;2022-11-20T06:11:09;3.10;;;2.87;;
479;SDS011;226;48.606;9.096;2022-11-20T06:13:39;4.20;;;2.87;;
479;SDS011;226;48.606;9.096;2022-11-20T06:16:08;1.93;;;1.83;;
479;SDS011;226;48.606;9.096;2022-11-20T06:18:37;2.83;;;2.63;;
479;SDS011;226;48.606;9.096;2022-11-20T06:21:06;4.23;;;2.77;;
479;SDS011;226;48.606;9.096;2022-11-20T06:23:36;2.80;;;2.57;;
479;SDS011;226;48.606;9.096;2022-11-20T06:26:05;7.40;;;2.57;;
479;SDS011;226;48.606;9.096;2022-11-20T06:28:36;2.93;;;2.73;;
479;SDS011;226;48.606;9.096;2022-11-20T06:31:04;5.20;;;3.47;;
479;SDS011;226;48.606;9.096;2022-11-20T06:33:33;3.97;;;3.20;;
479;SDS011;226;48.606;9.096;2022-11-20T06:36:01;2.20;;;2.10;;
479;SDS011;226;48.606;9.096;2022-11-20T06:38:36;3.27;;;2.53;;
479;SDS011;226;48.606;9.096;2022-11-20T06:41:04;5.40;;;3.90;;
479;SDS011;226;48.606;9.096;2022-11-20T06:43:33;2.50;;;2.27;;
479;SDS011;226;48.606;9.096;2022-11-20T06:46:03;2.57;;;2.37;;
479;SDS011;226;48.606;9.096;2022-11-20T06:48:32;2.67;;;2.47;;
479;SDS011;226;48.606;9.096;2022-11-20T06:51:02;3.63;;;3.33;;
479;SDS011;226;48.606;9.096;2022-11-20T06:53:31;1.67;;;1.57;;
479;SDS011;226;48.606;9.096;2022-11-20T06:55:59;3.03;;;2.73;;
479;SDS011;226;48.606;9.096;2022-11-20T06:58:27;2.90;;;2.53;;
479;SDS011;226;48.606;9.096;2022-11-20T07:00:59;3.70;;;2.37;;
479;SDS011;226;48.606;9.096;2022-11-20T07:03:27;2.37;;;2.20;;
479;SDS011;226;48.606;9.096;2022-11-20T07:05:55;2.03;;;1.93;;
479;SDS011;226;48.606;9.096;2022-11-20T07:08:24;2.50;;;2.37;;
479;SDS011;226;48.606;9.096;2022-11-20T07:10:52;5.23;;;2.20;;
479;SDS011;226;48.606;9.096;2022-11-20T07:13:24;6.10;;;2.43;;
479;SDS011;226;48.606;9.096;2022-11-20T07:15:52;4.10;;;2.40;;
479;SDS011;226;48.606;9.096;2022-11-20T07:18:21;2.63;;;2.53;;
479;SDS011;226;48.606;9.096;2022-11-20T07:20:49;3.00;;;2.73;;
479;SDS011;226;48.606;9.096;2022-11-20T07:23:17;2.87;;;2.67;;
479;SDS011;226;48.606;9.096;2022-11-20T07:25:45;2.70;;;2.50;;
479;SDS011;226;48.606;9.096;2022-11-20T07:28:13;1.97;;;1.87;;
479;SDS011;226;48.606;9.096;2022-11-20T07:30:41;3.60;;;2.50;;
479;SDS011;226;48.606;9.096;2022-11-20T07:33:09;2.77;;;2.40;;
479;SDS011;226;48.606;9.096;2022-11-20T07:35:38;4.67;;;2.23;;
479;SDS011;226;48.606;9.096;2022-11-20T07:38:06;5.07;;;3.87;;
479;SDS011;226;48.606;9.096;2022-11-20T07:40:35;3.00;;;2.87;;
479;SDS011;226;48.606;9.096;2022-11-20T07:43:03;2.57;;;2.30;;
479;SDS011;226;48.606;9.096;2022-11-20T07:45:31;2.70;;;2.60;;
479;SDS011;226;48.606;9.096;2022-11-20T07:47:59;2.23;;;2.13;;
479;SDS011;226;48.606;9.096;2022-11-20T07:50:27;2.93;;;2.70;;
479;SDS011;226;48.606;9.096;2022-11-20T07:53:01;5.80;;;3.43;;
479;SDS011;226;48.606;9.096;2022-11-20T07:55:30;1.67;;;1.57;;
479;SDS011;226;48.606;9.096;2022-11-20T07:57:58;4.13;;;2.60;;
479;SDS011;226;48.606;9.096;2022-11-20T08:00:27;1.87;;;1.80;;
479;SDS011;226;48.606;9.096;2022-11-20T08:02:55;2.40;;;2.17;;
479;SDS011;226;48.606;9.096;2022-11-20T08:05:23;2.73;;;2.20;;
479;SDS011;226;48.606;9.096;2022-11-20T08:07:51;1.63;;;1.63;;
479;SDS011;226;48.606;9.096;2022-11-20T08:10:20;1.60;;;1.50;;
479;SDS011;226;48.606;9.096;2022-11-20T08:12:49;2.13;;;2.03;;
479;SDS011;226;48.606;9.096;2022-11-20T08:15:36;2.03;;;1.93;;
479;SDS011;226;48.606;9.096;2022-11-20T08:18:05;1.60;;;1.60;;
479;SDS011;226;48.606;9.096;2022-11-20T08:20:55;3.33;;;2.00;;
479;SDS011;226;48.606;9.096;2022-11-20T08:23:23;2.50;;;2.30;;
479;SDS011;226;48.606;9.096;2022-11-20T08:25:52;4.50;;;2.20;;
479;SDS011;226;48.606;9.096;2022-11-20T08:28:20;2.47;;;2.27;;
479;SDS011;226;48.606;9.096;2022-11-20T08:30:48;2.10;;;1.90;;
479;SDS011;226;48.606;9.096;2022-11-20T08:33:17;1.93;;;1.83;;
479;SDS011;226;48.606;9.096;2022-11-20T08:35:45;4.00;;;1.93;;
479;SDS011;226;48.606;9.096;2022-11-20T08:38:13;2.13;;;2.00;;
479;SDS011;226;48.606;9.096;2022-11-20T08:40:41;2.10;;;2.10;;
479;SDS011;226;48.606;9.096;2022-11-20T08:43:31;1.70;;;1.40;;
479;SDS011;226;48.606;9.096;2022-11-20T08:45:59;1.93;;;1.83;;
479;SDS011;226;48.606;9.096;2022-11-20T08:48:27;1.53;;;1.43;;
479;SDS011;226;48.606;9.096;2022-11-20T08:50:57;2.07;;;1.97;;
479;SDS011;226;48.606;9.096;2022-11-20T08:53:26;2.37;;;2.23;;
479;SDS011;226;48.606;9.096;2022-11-20T08:55:54;4.53;;;2.27;;
479;SDS011;226;48.606;9.096;2022-11-20T08:58:23;1.97;;;1.87;;
479;SDS011;226;48.606;9.096;2022-11-20T09:00:53;2.40;;;2.20;;
479;SDS011;226;48.606;9.096;2022-11-20T09:03:21;1.53;;;1.53;;
479;SDS011;226;48.606;9.096;2022-11-20T09:05:57;2.17;;;1.97;;
479;SDS011;226;48.606;9.096;2022-11-20T09:08:26;1.70;;;1.60;;
479;SDS011;226;48.606;9.096;2022-11-20T09:10:55;1.70;;;1.60;;
479;SDS011;226;48.606;9.096;2022-11-20T09:13:24;2.53;;;2.10;;
479;SDS011;226;48.606;9.096;2022-11-20T09:15:55;2.17;;;2.00;;
479;SDS011;226;48.606;9.096;2022-11-20T09:18:24;2.20;;;1.97;;
479;SDS011;226;48.606;9.096;2022-11-20T09:20:55;1.80;;;1.70;;
479;SDS011;226;48.606;9.096;2022-11-20T09:23:24;2.13;;;2.03;;
479;SDS011;226;48.606;9.096;2022-11-20T09:25:52;1.33;;;1.23;;
479;SDS011;226;48.606;9.096;2022-11-20T09:28:21;3.13;;;1.67;;
479;SDS011;226;48.606;9.096;2022-11-20T09:30:49;1.87;;;1.70;;
479;SDS011;226;48.606;9.096;2022-11-20T09:33:19;1.60;;;1.50;;
479;SDS011;226;48.606;9.096;2022-11-20T09:35:47;2.17;;;2.00;;
479;SDS011;226;48.606;9.096;2022-11-20T09:38:15;1.70;;;1.60;;
479;SDS011;226;48.606;9.096;2022-11-20T09:40:44;1.90;;;1.80;;
479;SDS011;226;48.606;9.096;2022-11-20T09:43:17;1.70;;;1.60;;
479;SDS011;226;48.606;9.096;2022-11-20T09:45:50;2.23;;;2.00;;
479;SDS011;226;48.606;9.096;2022-11-20T09:48:40;2.00;;;1.90;;
479;SDS011;226;48.606;9.096;2022-11-20T09:51:19;1.67;;;1.57;;
479;SDS011;226;48.606;9.096;2022-11-20T09:54:00;1.40;;;1.30;;
479;SDS011;226;48.606;9.096;2022-11-20T09:56:37;1.10;;;1.10;;
479;SDS011;226;48.606;9.096;2022-11-20T09:59:13;1.40;;;1.40;;
479;SDS011;226;48.606;9.096;2022-11-20T10:01:51;1.80;;;1.70;;
479;SDS011;226;48.606;9.096;2022-11-20T10:04:20;1.37;;;1.37;;
479;SDS011;226;48.606;9.096;2022-11-20T10:06:50;1.93;;;1.83;;
479;SDS011;226;48.606;9.096;2022-11-20T10:09:49;1.73;;;1.40;;
479;SDS011;226;48.606;9.096;2022-11-20T10:12:21;2.70;;;2.60;;
479;SDS011;226;48.606;9.096;2022-11-20T10:14:57;0.97;;;0.97;;
479;SDS011;226;48.606;9.096;2022-11-20T10:20:29;1.77;;;1.67;;
479;SDS011;226;48.606;9.096;2022-11-20T10:23:11;1.30;;;1.30;;
479;SDS011;226;48.606;9.096;2022-11-20T10:25:52;1.17;;;1.17;;
479;SDS011;226;48.606;9.096;2022-11-20T10:28:29;2.00;;;1.70;;
479;SDS011;226;48.606;9.096;2022-11-20T10:31:26;1.27;;;1.27;;
479;SDS011;226;48.606;9.096;2022-11-20T10:33:59;1.63;;;1.63;;
479;SDS011;226;48.606;9.096;2022-11-20T10:36:47;1.40;;;1.30;;
479;SDS011;226;48.606;9.096;2022-11-20T10:39:22;1.53;;;1.30;;
479;SDS011;226;48.606;9.096;2022-11-20T10:41:57;1.23;;;1.23;;
479;SDS011;226;48.606;9.096;2022-11-20T10:44:27;1.23;;;1.13;;
479;SDS011;226;48.606;9.096;2022-11-20T10:47:19;1.17;;;1.07;;
479;SDS011;226;48.606;9.096;2022-11-20T10:49:48;1.40;;;1.40;;
479;SDS011;226;48.606;9.096;2022-11-20T10:52:21;1.23;;;1.23;;
479;SDS011;226;48.606;9.096;2022-11-20T10:54:58;1.73;;;1.63;;
479;SDS011;226;48.606;9.096;2022-11-20T10:57:45;2.57;;;1.37;;
479;SDS011;226;48.606;9.096;2022-11-20T11:00:19;1.93;;;0.97;;
479;SDS011;226;48.606;9.096;2022-11-20T11:02:48;1.60;;;1.20;;
479;SDS011;226;48.606;9.096;2022-11-20T11:05:22;2.30;;;1.20;;
479;SDS011;226;48.606;9.096;2022-11-20T11:08:01;1.17;;;1.10;;
479;SDS011;226;48.606;9.096;2022-11-20T11:10:36;1.00;;;1.00;;
479;SDS011;226;48.606;9.096;2022-11-20T11:13:18;1.23;;;1.13;;
479;SDS011;226;48.606;9.096;2022-11-20T11:18:23;1.07;;;1.07;;
479;SDS011;226;48.606;9.096;2022-11-20T11:20:53;1.60;;;1.50;;
479;SDS011;226;48.606;9.096;2022-11-20T11:23:29;2.57;;;2.47;;
479;SDS011;226;48.606;9.096;2022-11-20T11:26:00;1.30;;;1.30;;
479;SDS011;226;48.606;9.096;2022-11-20T11:28:29;3.33;;;1.60;;
479;SDS011;226;48.606;9.096;2022-11-20T11:30:58;2.13;;;2.03;;
479;SDS011;226;48.606;9.096;2022-11-20T11:33:27;2.00;;;1.40;;
479;SDS011;226;48.606;9.096;2022-11-20T11:35:56;2.20;;;1.73;;
479;SDS011;226;48.606;9.096;2022-11-20T11:38:32;5.07;;;2.23;;
479;SDS011;226;48.606;9.096;2022-11-20T11:41:03;2.03;;;1.93;;
479;SDS011;226;48.606;9.096;2022-11-20T11:43:33;1.30;;;1.30;;
479;SDS011;226;48.606;9.096;2022-11-20T11:46:30;1.97;;;1.63;;
479;SDS011;226;48.606;9.096;2022-11-20T11:49:01;1.90;;;1.80;;
479;SDS011;226;48.606;9.096;2022-11-20T11:51:41;4.10;;;2.37;;
479;SDS011;226;48.606;9.096;2022-11-20T11:54:22;1.87;;;1.77;;
479;SDS011;226;48.606;9.096;2022-11-20T11:56:52;1.43;;;1.43;;
479;SDS011;226;48.606;9.096;2022-11-20T11:59:22;1.77;;;1.67;;
479;SDS011;226;48.606;9.096;2022-11-20T12:01:57;2.13;;;1.80;;
479;SDS011;226;48.606;9.096;2022-11-20T12:04:37;1.10;;;1.00;;
479;SDS011;226;48.606;9.096;2022-11-20T12:07:12;1.67;;;1.57;;
479;SDS011;226;48.606;9.096;2022-11-20T12:10:05;1.70;;;1.47;;
479;SDS011;226;48.606;9.096;2022-11-20T12:12:42;1.63;;;1.53;;
479;SDS011;226;48.606;9.096;2022-11-20T12:15:16;1.13;;;1.10;;
479;SDS011;226;48.606;9.096;2022-11-20T12:17:53;1.50;;;1.40;;
479;SDS011;226;48.606;9.096;2022-11-20T12:20:22;1.40;;;1.40;;
479;SDS011;226;48.606;9.096;2022-11-20T12:22:56;1.70;;;1.60;;
479;SDS011;226;48.606;9.096;2022-11-20T12:25:31;2.00;;;1.33;;
479;SDS011;226;48.606;9.096;2022-11-20T12:31:09;2.30;;;1.50;;
479;SDS011;226;48.606;9.096;2022-11-20T12:34:06;4.10;;;1.53;;
479;SDS011;226;48.606;9.096;2022-11-20T12:36:43;1.30;;;1.30;;
479;SDS011;226;48.606;9.096;2022-11-20T12:39:26;1.07;;;1.07;;
479;SDS011;226;48.606;9.096;2022-11-20T12:42:19;1.10;;;1.10;;
479;SDS011;226;48.606;9.096;2022-11-20T12:48:42;1.33;;;1.30;;
479;SDS011;226;48.606;9.096;2022-11-20T12:51:39;1.53;;;1.43;;
479;SDS011;226;48.606;9.096;2022-11-20T12:54:30;1.33;;;1.23;;
479;SDS011;226;48.606;9.096;2022-11-20T12:57:09;4.57;;;1.93;;
479;SDS011;226;48.606;9.096;2022-11-20T12:59:51;0.93;;;0.93;;
479;SDS011;226;48.606;9.096;2022-11-20T13:02:33;1.10;;;1.10;;
479;SDS011;226;48.606;9.096;2022-11-20T13:05:16;1.00;;;1.00;;
479;SDS011;226;48.606;9.096;2022-11-20T13:07:47;1.23;;;1.10;;
479;SDS011;226;48.606;9.096;2022-11-20T13:10:18;1.20;;;1.20;;
479;SDS011;226;48.606;9.096;2022-11-20T13:12:55;1.30;;;1.30;;
479;SDS011;226;48.606;9.096;2022-11-20T13:15:35;1.40;;;1.37;;
479;SDS011;226;48.606;9.096;2022-11-20T13:18:13;1.30;;;1.30;;
479;SDS011;226;48.606;9.096;2022-11-20T13:20:42;1.20;;;1.10;;
479;SDS011;226;48.606;9.096;2022-11-20T13:23:10;1.20;;;1.10;;
479;SDS011;226;48.606;9.096;2022-11-20T13:25:39;7.40;;;1.77;;
479;SDS011;226;48.606;9.096;2022-11-20T13:30:56;1.50;;;1.47;;
479;SDS011;226;48.606;9.096;2022-11-20T13:33:27;1.40;;;1.40;;
479;SDS011;226;48.606;9.096;2022-11-20T13:35:58;1.50;;;1.40;;
479;SDS011;226;48.606;9.096;2022-11-20T13:38:28;1.87;;;1.50;;
479;SDS011;226;48.606;9.096;2022-11-20T13:41:07;2.30;;;2.10;;
479;SDS011;226;48.606;9.096;2022-11-20T13:43:51;1.40;;;1.30;;
479;SDS011;226;48.606;9.096;2022-11-20T13:46:21;2.07;;;1.90;;
479;SDS011;226;48.606;9.096;2022-11-20T13:48:50;1.53;;;1.40;;
479;SDS011;226;48.606;9.096;2022-11-20T13:51:27;1.10;;;1.10;;
479;SDS011;226;48.606;9.096;2022-11-20T13:54:13;1.30;;;1.30;;
479;SDS011;226;48.606;9.096;2022-11-20T13:57:14;1.90;;;1.80;;
479;SDS011;226;48.606;9.096;2022-11-20T14:00:05;7.60;;;1.30;;
479;SDS011;226;48.606;9.096;2022-11-20T14:02:40;1.03;;;1.03;;
479;SDS011;226;48.606;9.096;2022-11-20T14:07:47;1.20;;;1.20;;
479;SDS011;226;48.606;9.096;2022-11-20T14:10:21;1.47;;;1.37;;
479;SDS011;226;48.606;9.096;2022-11-20T14:12:57;1.30;;;1.30;;
479;SDS011;226;48.606;9.096;2022-11-20T14:15:26;3.30;;;2.03;;
479;SDS011;226;48.606;9.096;2022-11-20T14:17:57;5.60;;;2.10;;
479;SDS011;226;48.606;9.096;2022-11-20T14:20:27;10.50;;;2.57;;
479;SDS011;226;48.606;9.096;2022-11-20T14:22:57;3.43;;;2.70;;
479;SDS011;226;48.606;9.096;2022-11-20T14:25:26;1.70;;;1.70;;
479;SDS011;226;48.606;9.096;2022-11-20T14:27:54;1.77;;;1.67;;
479;SDS011;226;48.606;9.096;2022-11-20T14:30:24;1.20;;;1.20;;
479;SDS011;226;48.606;9.096;2022-11-20T14:32:54;1.30;;;1.30;;
479;SDS011;226;48.606;9.096;2022-11-20T14:35:29;1.20;;;1.10;;
479;SDS011;226;48.606;9.096;2022-11-20T14:37:58;1.33;;;1.33;;
479;SDS011;226;48.606;9.096;2022-11-20T14:40:28;1.30;;;1.20;;
479;SDS011;226;48.606;9.096;2022-11-20T14:42:58;1.43;;;1.43;;
479;SDS011;226;48.606;9.096;2022-11-20T14:45:26;1.70;;;1.60;;
479;SDS011;226;48.606;9.096;2022-11-20T14:47:55;1.47;;;1.47;;
479;SDS011;226;48.606;9.096;2022-11-20T14:50:27;1.57;;;1.47;;
479;SDS011;226;48.606;9.096;2022-11-20T14:52:57;1.30;;;1.30;;
479;SDS011;226;48.606;9.096;2022-11-20T14:55:30;1.37;;;1.37;;
479;SDS011;226;48.606;9.096;2022-11-20T14:57:59;1.87;;;1.60;;
479;SDS011;226;48.606;9.096;2022-11-20T15:00:29;1.30;;;1.30;;
479;SDS011;226;48.606;9.096;2022-11-20T15:02:59;1.47;;;1.47;;
479;SDS011;226;48.606;9.096;2022-11-20T15:08:13;1.03;;;1.03;;
479;SDS011;226;48.606;9.096;2022-11-20T15:10:45;1.57;;;1.57;;
479;SDS011;226;48.606;9.096;2022-11-20T15:13:15;1.50;;;1.40;;
479;SDS011;226;48.606;9.096;2022-11-20T15:15:49;3.27;;;1.50;;
479;SDS011;226;48.606;9.096;2022-11-20T15:18:20;2.57;;;2.17;;
479;SDS011;226;48.606;9.096;2022-11-20T15:20:50;2.23;;;1.90;;
479;SDS011;226;48.606;9.096;2022-11-20T15:23:19;1.53;;;1.43;;
479;SDS011;226;48.606;9.096;2022-11-20T15:25:47;2.00;;;1.90;;
479;SDS011;226;48.606;9.096;2022-11-20T15:28:17;1.60;;;1.50;;
479;SDS011;226;48.606;9.096;2022-11-20T15:30:48;2.03;;;1.87;;
479;SDS011;226;48.606;9.096;2022-11-20T15:33:17;6.93;;;2.20;;
479;SDS011;226;48.606;9.096;2022-11-20T15:35:47;5.93;;;1.83;;
479;SDS011;226;48.606;9.096;2022-11-20T15:38:15;5.20;;;1.97;;
479;SDS011;226;48.606;9.096;2022-11-20T15:40:43;2.93;;;1.70;;
479;SDS011;226;48.606;9.096;2022-11-20T15:43:11;2.27;;;2.17;;
479;SDS011;226;48.606;9.096;2022-11-20T15:45:40;2.83;;;2.63;;
479;SDS011;226;48.606;9.096;2022-11-20T15:48:11;4.60;;;3.10;;
479;SDS011;226;48.606;9.096;2022-11-20T15:50:43;8.23;;;3.17;;
479;SDS011;226;48.606;9.096;2022-11-20T15:53:20;17.03;;;2.10;;
479;SDS011;226;48.606;9.096;2022-11-20T15:55:48;2.40;;;2.20;;
479;SDS011;226;48.606;9.096;2022-11-20T15:58:16;3.13;;;2.90;;
479;SDS011;226;48.606;9.096;2022-11-20T16:00:44;8.80;;;3.37;;
479;SDS011;226;48.606;9.096;2022-11-20T16:03:13;5.00;;;2.33;;
479;SDS011;226;48.606;9.096;2022-11-20T16:05:42;2.30;;;2.10;;
479;SDS011;226;48.606;9.096;2022-11-20T16:08:12;2.90;;;1.97;;
479;SDS011;226;48.606;9.096;2022-11-20T16:10:40;2.10;;;1.67;;
479;SDS011;226;48.606;9.096;2022-11-20T16:13:12;3.20;;;2.00;;
479;SDS011;226;48.606;9.096;2022-11-20T16:15:59;2.53;;;2.43;;
479;SDS011;226;48.606;9.096;2022-11-20T16:18:31;2.03;;;1.93;;
479;SDS011;226;48.606;9.096;2022-11-20T16:20:59;1.43;;;1.43;;
479;SDS011;226;48.606;9.096;2022-11-20T16:23:29;2.10;;;1.90;;
479;SDS011;226;48.606;9.096;2022-11-20T16:25:57;2.73;;;2.47;;
479;SDS011;226;48.606;9.096;2022-11-20T16:28:25;2.43;;;2.30;;
479;SDS011;226;48.606;9.096;2022-11-20T16:30:53;17.13;;;4.40;;
479;SDS011;226;48.606;9.096;2022-11-20T16:33:21;22.13;;;4.93;;